createdAt,value
2023-04-16T00:00:29.740Z,6.80
2023-04-16T00:02:59.363Z,6.81
2023-04-16T00:05:27.512Z,6.79
2023-04-16T00:07:54.549Z,6.85
2023-04-16T00:10:21.595Z,6.83
2023-04-16T00:12:48.651Z,6.78
2023-04-16T00:15:15.679Z,6.80
2023-04-16T00:17:42.757Z,6.80
2023-04-16T00:20:10.071Z,6.86
2023-04-16T00:22:37.290Z,6.81
2023-04-16T00:25:04.504Z,6.81
2023-04-16T00:27:31.505Z,6.80
2023-04-16T00:29:58.600Z,6.78
2023-04-16T00:32:49.888Z,6.77
2023-04-16T00:35:21.058Z,6.81
2023-04-16T00:37:48.868Z,6.85
2023-04-16T00:40:16.172Z,6.89
2023-04-16T00:42:43.251Z,6.91
2023-04-16T00:45:10.978Z,6.89
2023-04-16T00:47:38.656Z,6.88
2023-04-16T00:50:06.427Z,6.83
2023-04-16T00:52:33.644Z,6.79
2023-04-16T00:55:01.204Z,6.70
2023-04-16T00:57:28.200Z,6.65
2023-04-16T00:59:56.822Z,6.65
2023-04-16T01:02:24.265Z,6.66
2023-04-16T01:04:51.880Z,6.64
2023-04-16T01:07:18.953Z,6.62
2023-04-16T01:09:46.281Z,6.53
2023-04-16T01:12:13.964Z,6.43
2023-04-16T01:14:40.983Z,6.27
2023-04-16T01:17:08.085Z,6.24
2023-04-16T01:19:38.724Z,6.20
2023-04-16T01:22:06.002Z,6.17
2023-04-16T01:24:33.042Z,6.18
2023-04-16T01:27:00.186Z,6.14
2023-04-16T01:29:27.408Z,6.06
2023-04-16T01:31:56.949Z,6.01
2023-04-16T01:34:33.098Z,5.99
2023-04-16T01:37:00.641Z,5.92
2023-04-16T01:39:28.845Z,5.90
2023-04-16T01:41:57.865Z,5.87
2023-04-16T01:44:25.878Z,5.79
2023-04-16T01:46:52.990Z,5.73
2023-04-16T01:49:21.554Z,5.70
2023-04-16T01:51:48.685Z,5.63
2023-04-16T01:54:15.704Z,5.65
2023-04-16T01:56:42.804Z,5.62
2023-04-16T01:59:09.994Z,5.58
2023-04-16T02:01:40.692Z,5.54
2023-04-16T02:04:08.425Z,5.46
2023-04-16T02:06:35.780Z,5.44
2023-04-16T02:09:02.734Z,5.40
2023-04-16T02:11:29.874Z,5.37
2023-04-16T02:13:57.056Z,5.33
2023-04-16T02:16:24.606Z,5.36
2023-04-16T02:19:17.201Z,5.30
2023-04-16T02:21:44.174Z,5.25
2023-04-16T02:24:11.568Z,5.21
2023-04-16T02:26:38.626Z,5.21
2023-04-16T02:29:12.425Z,5.18
2023-04-16T02:31:44.687Z,5.18
2023-04-16T02:34:13.059Z,5.08
2023-04-16T02:36:41.072Z,5.07
2023-04-16T02:39:08.594Z,5.01
2023-04-16T02:41:36.354Z,5.00
2023-04-16T02:44:03.732Z,4.93
2023-04-16T02:46:30.935Z,4.91
2023-04-16T02:48:58.012Z,4.84
2023-04-16T02:51:25.299Z,4.79
2023-04-16T02:53:52.198Z,4.80
2023-04-16T02:56:19.184Z,4.72
2023-04-16T02:58:46.576Z,4.73
2023-04-16T03:01:13.609Z,4.73
2023-04-16T03:03:40.732Z,4.74
2023-04-16T03:06:07.775Z,4.62
2023-04-16T03:08:34.821Z,4.61
2023-04-16T03:11:01.787Z,4.58
2023-04-16T03:13:29.103Z,4.60
2023-04-16T03:15:56.391Z,4.59
2023-04-16T03:18:23.637Z,4.58
2023-04-16T03:20:53.843Z,4.50
2023-04-16T03:23:20.968Z,4.52
2023-04-16T03:25:48.258Z,4.52
2023-04-16T03:28:18.116Z,4.54
2023-04-16T03:30:50.780Z,4.58
2023-04-16T03:33:17.937Z,4.62
2023-04-16T03:35:44.972Z,4.59
2023-04-16T03:38:12.751Z,4.52
2023-04-16T03:40:40.241Z,4.52
2023-04-16T03:43:07.381Z,4.53
2023-04-16T03:45:34.402Z,4.56
2023-04-16T03:48:01.415Z,4.47
2023-04-16T03:50:28.569Z,4.47
2023-04-16T03:52:55.595Z,4.48
2023-04-16T03:55:22.735Z,4.51
2023-04-16T03:57:49.787Z,4.53
2023-04-16T04:00:17.256Z,4.52
2023-04-16T04:03:01.286Z,4.49
2023-04-16T04:05:28.491Z,4.51
2023-04-16T04:07:55.794Z,4.50
2023-04-16T04:10:23.135Z,4.52
2023-04-16T04:12:50.227Z,4.49
2023-04-16T04:15:17.441Z,4.48
2023-04-16T04:17:44.474Z,4.49
2023-04-16T04:20:12.628Z,4.48
2023-04-16T04:22:42.330Z,4.50
2023-04-16T04:25:10.840Z,4.48
2023-04-16T04:27:37.955Z,4.52
2023-04-16T04:30:05.434Z,4.52
2023-04-16T04:32:33.334Z,4.52
2023-04-16T04:35:01.683Z,4.53
2023-04-16T04:37:28.753Z,4.50
2023-04-16T04:39:56.318Z,4.46
2023-04-16T04:42:23.703Z,4.43
2023-04-16T04:44:51.040Z,4.39
2023-04-16T04:47:17.988Z,4.38
2023-04-16T04:49:45.185Z,4.43
2023-04-16T04:52:12.256Z,4.41
2023-04-16T04:54:41.900Z,4.37
2023-04-16T04:57:09.140Z,4.36
2023-04-16T04:59:36.487Z,4.36
2023-04-16T05:02:03.752Z,4.34
2023-04-16T05:04:31.144Z,4.27
2023-04-16T05:06:58.291Z,4.29
2023-04-16T05:09:25.300Z,4.30
2023-04-16T05:11:52.404Z,4.20
2023-04-16T05:14:19.491Z,4.21
2023-04-16T05:16:46.508Z,4.18
2023-04-16T05:19:13.678Z,4.19
2023-04-16T05:21:40.889Z,4.19
2023-04-16T05:24:07.976Z,4.17
2023-04-16T05:26:35.213Z,4.12
2023-04-16T05:29:02.215Z,4.13
2023-04-16T05:31:29.251Z,4.09
2023-04-16T05:33:56.238Z,4.05
2023-04-16T05:36:23.395Z,4.04
2023-04-16T05:38:50.377Z,3.99
2023-04-16T05:41:21.118Z,4.01
2023-04-16T05:43:48.390Z,3.99
2023-04-16T05:46:15.559Z,4.02
2023-04-16T05:48:42.792Z,4.01
2023-04-16T05:51:09.736Z,3.92
2023-04-16T05:53:36.719Z,4.05
2023-04-16T05:56:03.734Z,4.10
2023-04-16T05:58:30.862Z,4.15
2023-04-16T06:01:01.571Z,4.21
2023-04-16T06:03:28.937Z,4.25
2023-04-16T06:05:58.073Z,4.28
2023-04-16T06:08:28.503Z,4.30
2023-04-16T06:10:55.985Z,4.32
2023-04-16T06:13:23.220Z,4.31
2023-04-16T06:15:50.304Z,4.36
2023-04-16T06:18:17.469Z,4.44
2023-04-16T06:20:44.586Z,4.51
2023-04-16T06:23:24.801Z,4.47
2023-04-16T06:25:52.166Z,4.52
2023-04-16T06:28:19.699Z,4.62
2023-04-16T06:30:48.312Z,4.68
2023-04-16T06:33:15.813Z,4.78
2023-04-16T06:35:42.998Z,4.87
2023-04-16T06:38:10.097Z,4.97
2023-04-16T06:40:38.717Z,5.08
2023-04-16T06:43:06.099Z,5.18
2023-04-16T06:45:33.344Z,5.28
2023-04-16T06:48:01.679Z,5.33
2023-04-16T06:50:28.836Z,5.42
2023-04-16T06:52:56.957Z,5.55
2023-04-16T06:55:24.300Z,5.64
2023-04-16T06:57:51.443Z,5.71
2023-04-16T07:00:19.302Z,5.79
2023-04-16T07:02:50.385Z,5.88
2023-04-16T07:05:18.473Z,5.95
2023-04-16T07:07:46.504Z,6.07
2023-04-16T07:10:13.852Z,6.18
2023-04-16T07:12:41.712Z,6.28
2023-04-16T07:15:12.941Z,6.39
2023-04-16T07:17:41.149Z,6.51
2023-04-16T07:20:11.914Z,6.64
2023-04-16T07:22:55.883Z,6.78
2023-04-16T07:25:25.533Z,7.03
2023-04-16T07:27:53.217Z,7.37
2023-04-16T07:30:21.273Z,7.51
2023-04-16T07:32:48.831Z,7.69
2023-04-16T07:35:19.150Z,7.91
2023-04-16T07:37:46.441Z,7.97
2023-04-16T07:40:14.208Z,8.09
2023-04-16T07:42:41.631Z,8.19
2023-04-16T07:45:09.197Z,8.00
2023-04-16T07:47:37.131Z,8.32
2023-04-16T07:50:05.663Z,8.39
2023-04-16T07:52:33.527Z,8.54
2023-04-16T07:55:01.059Z,8.67
2023-04-16T07:57:28.481Z,8.76
2023-04-16T07:59:56.651Z,8.89
2023-04-16T08:02:24.511Z,9.00
2023-04-16T08:04:52.025Z,9.17
2023-04-16T08:07:20.073Z,9.46
2023-04-16T08:09:49.808Z,9.68
2023-04-16T08:12:22.109Z,9.63
2023-04-16T08:14:50.289Z,9.76
2023-04-16T08:17:22.112Z,9.86
2023-04-16T08:19:50.874Z,9.95
2023-04-16T08:22:19.979Z,10.08
2023-04-16T08:24:47.301Z,10.38
2023-04-16T08:27:18.579Z,10.44
2023-04-16T08:29:47.726Z,10.73
2023-04-16T08:32:14.749Z,10.93
2023-04-16T08:34:42.856Z,11.00
2023-04-16T08:37:35.756Z,10.90
2023-04-16T08:40:40.306Z,11.12
2023-04-16T08:45:59.433Z,11.41
2023-04-16T08:51:44.863Z,11.74
2023-04-16T08:54:19.361Z,11.76
2023-04-16T08:57:55.657Z,12.12
2023-04-16T09:00:31.532Z,12.03
2023-04-16T09:03:00.692Z,12.12
2023-04-16T09:05:57.432Z,12.15
2023-04-16T09:08:27.302Z,12.35
2023-04-16T09:10:56.267Z,12.48
2023-04-16T09:13:23.868Z,12.52
2023-04-16T09:15:54.661Z,12.62
2023-04-16T09:18:22.242Z,12.52
2023-04-16T09:21:11.392Z,12.57
2023-04-16T09:23:44.756Z,12.68
2023-04-16T09:26:12.467Z,12.81
2023-04-16T09:28:41.380Z,12.93
2023-04-16T09:31:21.269Z,12.99
2023-04-16T09:44:35.446Z,13.37
2023-04-16T09:47:06.470Z,13.56
2023-04-16T09:53:52.511Z,13.56
2023-04-16T09:56:31.386Z,13.64
2023-04-16T10:02:15.486Z,13.94
2023-04-16T10:05:02.032Z,14.08
2023-04-16T10:08:26.249Z,14.10
2023-04-16T10:12:34.367Z,14.18
2023-04-16T10:15:14.561Z,14.06
2023-04-16T10:17:41.765Z,14.05
2023-04-16T10:20:52.687Z,14.32
2023-04-16T10:23:24.221Z,14.38
2023-04-16T10:25:52.673Z,14.44
2023-04-16T10:28:20.040Z,14.48
2023-04-16T10:30:55.702Z,14.62
2023-04-16T10:33:23.911Z,14.82
2023-04-16T10:36:10.453Z,14.91
2023-04-16T10:39:00.670Z,14.98
2023-04-16T10:41:28.049Z,15.07
2023-04-16T10:44:05.963Z,14.93
2023-04-16T10:46:34.224Z,14.91
2023-04-16T10:49:02.637Z,15.01
2023-04-16T10:51:31.762Z,14.98
2023-04-16T10:54:03.687Z,14.66
2023-04-16T10:56:32.687Z,14.90
2023-04-16T10:58:59.948Z,15.09
2023-04-16T11:01:33.143Z,15.17
2023-04-16T11:04:04.235Z,15.17
2023-04-16T11:06:32.316Z,15.21
2023-04-16T11:09:36.439Z,15.24
2023-04-16T11:12:07.607Z,15.17
2023-04-16T11:18:04.435Z,15.39
2023-04-16T11:20:31.687Z,15.30
2023-04-16T11:22:58.773Z,15.33
2023-04-16T11:25:26.964Z,15.43
2023-04-16T11:27:54.172Z,15.51
2023-04-16T11:30:34.342Z,15.53
2023-04-16T11:33:19.422Z,15.52
2023-04-16T11:39:15.870Z,15.73
2023-04-16T11:41:47.678Z,15.79
2023-04-16T11:44:25.078Z,15.79
2023-04-16T11:46:53.149Z,15.77
2023-04-16T11:49:32.324Z,15.82
2023-04-16T11:51:59.362Z,15.80
2023-04-16T11:54:26.865Z,15.78
2023-04-16T11:56:53.862Z,16.03
2023-04-16T11:59:23.205Z,15.99
2023-04-16T12:01:55.961Z,16.01
2023-04-16T12:04:25.885Z,16.11
2023-04-16T12:07:09.167Z,16.18
2023-04-16T12:09:40.782Z,16.46
2023-04-16T12:12:28.263Z,16.63
2023-04-16T12:14:57.108Z,16.42
2023-04-16T12:17:24.213Z,16.28
2023-04-16T12:20:01.081Z,16.18
2023-04-16T12:22:33.568Z,16.12
2023-04-16T12:25:03.884Z,16.05
2023-04-16T12:27:53.397Z,16.24
2023-04-16T12:30:23.414Z,16.25
2023-04-16T12:32:51.334Z,16.53
2023-04-16T12:35:32.130Z,16.55
2023-04-16T12:37:59.376Z,16.66
2023-04-16T12:40:26.502Z,16.49
2023-04-16T12:42:53.483Z,16.39
2023-04-16T12:45:20.884Z,16.54
2023-04-16T12:47:47.985Z,16.71
2023-04-16T12:50:15.015Z,16.90
2023-04-16T12:52:42.064Z,16.80
2023-04-16T12:55:09.369Z,16.76
2023-04-16T12:57:36.346Z,16.77
2023-04-16T13:00:05.300Z,16.73
2023-04-16T13:02:32.935Z,16.87
2023-04-16T13:05:01.060Z,17.01
2023-04-16T13:07:28.638Z,17.12
2023-04-16T13:09:55.651Z,17.21
2023-04-16T13:12:22.645Z,17.37
2023-04-16T13:14:50.022Z,17.26
2023-04-16T13:17:17.023Z,17.48
2023-04-16T13:19:44.118Z,17.60
2023-04-16T13:22:11.060Z,17.37
2023-04-16T13:24:38.396Z,17.20
2023-04-16T13:27:06.045Z,17.36
2023-04-16T13:29:33.003Z,17.20
2023-04-16T13:32:00.152Z,17.13
2023-04-16T13:34:27.220Z,17.21
2023-04-16T13:36:54.177Z,17.32
2023-04-16T13:39:21.379Z,17.52
2023-04-16T13:41:49.338Z,17.61
2023-04-16T13:44:16.334Z,17.52
2023-04-16T13:46:47.832Z,17.71
2023-04-16T13:49:16.361Z,17.55
2023-04-16T13:51:45.015Z,17.61
2023-04-16T13:54:12.337Z,17.68
2023-04-16T13:56:39.781Z,17.54
2023-04-16T13:59:07.006Z,17.76
2023-04-16T14:01:34.025Z,17.89
2023-04-16T14:04:06.463Z,17.93
2023-04-16T14:06:36.835Z,17.75
2023-04-16T14:09:04.548Z,17.60
2023-04-16T14:11:31.746Z,17.56
2023-04-16T14:13:58.909Z,17.90
2023-04-16T14:16:26.269Z,17.98
2023-04-16T14:18:53.509Z,17.87
2023-04-16T14:21:20.440Z,17.74
2023-04-16T14:23:47.417Z,17.49
2023-04-16T14:26:15.094Z,17.51
2023-04-16T14:28:42.304Z,17.48
2023-04-16T14:31:09.299Z,17.43
2023-04-16T14:33:37.246Z,17.64
2023-04-16T14:36:05.244Z,17.64
2023-04-16T14:38:32.733Z,17.69
2023-04-16T14:41:00.722Z,17.61
2023-04-16T14:43:27.728Z,17.34
2023-04-16T14:45:54.980Z,17.15
2023-04-16T14:48:22.430Z,17.02
2023-04-16T14:50:49.354Z,17.19
2023-04-16T14:53:16.518Z,17.39
2023-04-16T14:55:43.595Z,17.51
2023-04-16T14:58:10.954Z,17.28
2023-04-16T15:00:38.024Z,17.19
2023-04-16T15:03:05.552Z,17.22
2023-04-16T15:05:32.874Z,17.30
2023-04-16T15:08:00.841Z,17.44
2023-04-16T15:10:28.832Z,17.49
2023-04-16T15:12:55.907Z,17.48
2023-04-16T15:15:26.713Z,17.67
2023-04-16T15:17:55.172Z,17.52
2023-04-16T15:20:22.375Z,17.42
2023-04-16T15:22:49.351Z,17.45
2023-04-16T15:25:16.595Z,17.57
2023-04-16T15:27:43.530Z,17.60
2023-04-16T15:30:13.362Z,17.63
2023-04-16T15:32:40.791Z,17.66
2023-04-16T15:35:09.755Z,17.54
2023-04-16T15:37:39.038Z,17.25
2023-04-16T15:40:08.165Z,17.33
2023-04-16T15:42:35.206Z,17.50
2023-04-16T15:45:02.193Z,17.59
2023-04-16T15:47:29.326Z,17.45
2023-04-16T15:49:57.754Z,17.28
2023-04-16T15:52:25.774Z,17.15
2023-04-16T15:54:53.158Z,17.16
2023-04-16T15:57:20.101Z,17.32
2023-04-16T15:59:59.573Z,17.36
2023-04-16T16:02:34.024Z,17.35
2023-04-16T16:05:01.239Z,17.17
2023-04-16T16:07:28.200Z,17.20
2023-04-16T16:09:59.168Z,17.12
2023-04-16T16:12:26.209Z,17.10
2023-04-16T16:14:54.152Z,17.05
2023-04-16T16:17:21.873Z,17.01
2023-04-16T16:19:48.979Z,17.02
2023-04-16T16:22:20.508Z,17.10
2023-04-16T16:24:54.403Z,17.01
2023-04-16T16:27:21.534Z,17.03
2023-04-16T16:29:48.509Z,16.95
2023-04-16T16:32:16.671Z,16.99
2023-04-16T16:34:43.598Z,16.94
2023-04-16T16:37:10.774Z,17.05
2023-04-16T16:39:38.704Z,16.92
2023-04-16T16:42:19.819Z,17.07
2023-04-16T16:47:37.538Z,16.89
2023-04-16T16:50:09.699Z,16.78
2023-04-16T16:52:39.524Z,16.75
2023-04-16T16:55:18.825Z,16.94
2023-04-16T16:57:46.673Z,16.77
2023-04-16T17:00:17.783Z,16.75
2023-04-16T17:02:49.118Z,16.58
2023-04-16T17:05:18.222Z,16.59
2023-04-16T17:07:47.347Z,16.60
2023-04-16T17:10:23.456Z,16.59
2023-04-16T17:12:55.127Z,16.43
2023-04-16T17:15:23.992Z,16.47
2023-04-16T17:17:51.963Z,16.57
2023-04-16T17:20:20.997Z,16.45
2023-04-16T17:22:48.188Z,16.25
2023-04-16T17:25:18.657Z,16.22
2023-04-16T17:27:46.131Z,16.11
2023-04-16T17:30:36.924Z,16.07
2023-04-16T17:33:38.821Z,15.99
2023-04-16T17:36:09.767Z,15.83
2023-04-16T17:38:50.359Z,15.82
2023-04-16T17:41:23.669Z,15.98
2023-04-16T17:43:52.665Z,15.74
2023-04-16T17:46:21.337Z,15.73
2023-04-16T17:49:13.162Z,15.73
2023-04-16T17:52:00.795Z,15.68
2023-04-16T17:54:40.916Z,15.53
2023-04-16T17:57:19.502Z,15.47
2023-04-16T17:59:50.411Z,15.40
2023-04-16T18:02:17.547Z,15.27
2023-04-16T18:04:45.693Z,15.22
2023-04-16T18:07:13.731Z,15.19
2023-04-16T18:09:41.081Z,15.13
2023-04-16T18:12:08.429Z,15.03
2023-04-16T18:14:36.125Z,14.89
2023-04-16T18:17:06.203Z,14.84
2023-04-16T18:19:33.648Z,14.75
2023-04-16T18:22:07.483Z,14.75
2023-04-16T18:24:39.850Z,14.64
2023-04-16T18:27:07.534Z,14.50
2023-04-16T18:29:34.715Z,14.43
2023-04-16T18:32:04.363Z,14.37
2023-04-16T18:34:32.339Z,14.25
2023-04-16T18:36:59.764Z,14.29
2023-04-16T18:39:27.259Z,14.17
2023-04-16T18:41:54.420Z,14.07
2023-04-16T18:44:21.568Z,13.95
2023-04-16T18:46:48.751Z,13.82
2023-04-16T18:49:16.601Z,13.78
2023-04-16T18:51:43.723Z,13.71
2023-04-16T18:54:10.706Z,13.62
2023-04-16T18:56:37.722Z,13.72
2023-04-16T18:59:04.782Z,13.56
2023-04-16T19:01:31.974Z,13.47
2023-04-16T19:03:59.272Z,13.35
2023-04-16T19:06:28.307Z,13.35
2023-04-16T19:08:55.826Z,13.29
2023-04-16T19:11:29.242Z,13.17
2023-04-16T19:13:57.757Z,13.08
2023-04-16T19:16:32.996Z,13.10
2023-04-16T19:19:00.238Z,12.98
2023-04-16T19:21:27.844Z,12.92
2023-04-16T19:23:54.830Z,12.85
2023-04-16T19:26:22.188Z,12.80
2023-04-16T19:28:49.229Z,12.72
2023-04-16T19:31:16.514Z,12.67
2023-04-16T19:33:43.696Z,12.57
2023-04-16T19:36:11.034Z,12.46
2023-04-16T19:38:38.079Z,12.46
2023-04-16T19:41:05.769Z,12.40
2023-04-16T19:43:38.199Z,12.34
2023-04-16T19:46:06.957Z,12.32
2023-04-16T19:48:34.823Z,12.27
2023-04-16T19:51:07.661Z,12.21
2023-04-16T19:53:35.611Z,12.13
2023-04-16T19:56:03.005Z,12.10
2023-04-16T19:58:30.369Z,12.03
2023-04-16T20:01:01.278Z,11.96
2023-04-16T20:03:28.892Z,11.92
2023-04-16T20:05:56.561Z,11.86
2023-04-16T20:08:24.449Z,11.78
2023-04-16T20:10:56.659Z,11.77
2023-04-16T20:13:32.654Z,11.78
2023-04-16T20:16:04.809Z,11.70
2023-04-16T20:18:32.517Z,11.71
2023-04-16T20:21:04.112Z,11.61
2023-04-16T20:23:31.715Z,11.60
2023-04-16T20:25:59.404Z,11.58
2023-04-16T20:28:44.334Z,11.48
2023-04-16T20:31:27.015Z,11.43
2023-04-16T20:34:01.067Z,11.44
2023-04-16T20:36:53.184Z,11.37
2023-04-16T20:39:27.086Z,11.28
2023-04-16T20:41:57.882Z,11.21
2023-04-16T20:44:37.730Z,11.21
2023-04-16T20:47:07.541Z,11.15
2023-04-16T20:49:35.261Z,11.15
2023-04-16T20:52:03.051Z,11.04
2023-04-16T20:54:30.774Z,10.98
2023-04-16T20:56:58.759Z,10.79
2023-04-16T20:59:26.526Z,10.67
2023-04-16T21:01:54.126Z,10.52
2023-04-16T21:08:22.579Z,10.33
2023-04-16T21:10:51.263Z,10.30
2023-04-16T21:13:19.134Z,10.26
2023-04-16T21:15:46.645Z,10.26
2023-04-16T21:18:13.927Z,10.15
2023-04-16T21:20:41.432Z,10.10
2023-04-16T21:23:09.572Z,10.07
2023-04-16T21:25:38.437Z,9.96
2023-04-16T21:28:06.756Z,9.86
2023-04-16T21:30:36.604Z,9.86
2023-04-16T21:33:14.031Z,9.82
2023-04-16T21:35:42.913Z,9.76
2023-04-16T21:38:15.651Z,9.74
2023-04-16T21:40:44.067Z,9.66
2023-04-16T21:43:11.600Z,9.59
2023-04-16T21:45:40.393Z,9.51
2023-04-16T21:48:09.043Z,9.48
2023-04-16T21:50:36.653Z,9.39
2023-04-16T21:53:06.920Z,9.29
2023-04-16T21:55:35.911Z,9.24
2023-04-16T21:58:07.870Z,9.17
2023-04-16T22:00:36.163Z,9.14
2023-04-16T22:03:04.800Z,9.13
2023-04-16T22:05:33.575Z,9.15
2023-04-16T22:08:05.832Z,9.11
2023-04-16T22:10:39.896Z,9.06
2023-04-16T22:13:13.150Z,9.08
2023-04-16T22:15:40.997Z,9.11
2023-04-16T22:18:10.174Z,9.16
2023-04-16T22:20:39.576Z,9.22
2023-04-16T22:23:08.332Z,9.20
2023-04-16T22:25:36.644Z,9.19
2023-04-16T22:28:04.057Z,9.18
2023-04-16T22:30:31.603Z,9.21
2023-04-16T22:32:58.789Z,9.23
2023-04-16T22:35:26.094Z,9.28
2023-04-16T22:41:10.411Z,9.30
2023-04-16T22:43:37.759Z,9.26
2023-04-16T22:46:06.866Z,9.30
2023-04-16T22:48:36.645Z,9.26
2023-04-16T22:51:04.936Z,9.29
2023-04-16T22:53:33.972Z,9.27
2023-04-16T22:56:29.070Z,9.27
2023-04-16T22:58:56.370Z,9.25
2023-04-16T23:01:23.974Z,9.20
2023-04-16T23:03:51.284Z,9.23
2023-04-16T23:06:18.342Z,9.16
2023-04-16T23:08:45.724Z,9.03
2023-04-16T23:11:12.815Z,8.93
2023-04-16T23:13:39.923Z,8.79
2023-04-16T23:16:08.146Z,8.68
2023-04-16T23:18:35.851Z,8.54
2023-04-16T23:21:05.792Z,8.44
2023-04-16T23:23:32.938Z,8.39
2023-04-16T23:26:01.503Z,8.30
2023-04-16T23:28:28.929Z,8.20
2023-04-16T23:30:56.521Z,8.08
2023-04-16T23:33:23.736Z,8.04
2023-04-16T23:35:51.548Z,7.94
2023-04-16T23:38:19.029Z,7.90
2023-04-16T23:40:46.676Z,7.89
2023-04-16T23:43:13.934Z,7.88
2023-04-16T23:45:41.470Z,7.85
2023-04-16T23:48:08.597Z,7.84
2023-04-16T23:50:36.072Z,7.76
2023-04-16T23:53:03.216Z,7.62
2023-04-16T23:55:30.360Z,7.59
2023-04-16T23:57:57.716Z,7.52
